sensor_id;sensor_type;location;lat;lon;timestamp;P1;durP1;ratioP1;P2;durP2;ratioP2
71777;SDS011;59609;52.430;4.668;2023-02-28T00:00:19;5.32;;;1.63;;
71777;SDS011;59609;52.430;4.668;2023-02-28T00:02:46;4.32;;;1.80;;
71777;SDS011;59609;52.430;4.668;2023-02-28T00:05:12;4.20;;;1.70;;
71777;SDS011;59609;52.430;4.668;2023-02-28T00:07:39;6.53;;;1.90;;
71777;SDS011;59609;52.430;4.668;2023-02-28T00:10:05;4.53;;;1.77;;
71777;SDS011;59609;52.430;4.668;2023-02-28T00:12:32;4.90;;;1.80;;
71777;SDS011;59609;52.430;4.668;2023-02-28T00:14:58;5.18;;;1.90;;
71777;SDS011;59609;52.430;4.668;2023-02-28T00:17:24;6.95;;;1.90;;
71777;SDS011;59609;52.430;4.668;2023-02-28T00:19:49;4.63;;;1.90;;
71777;SDS011;59609;52.430;4.668;2023-02-28T00:22:17;5.95;;;1.90;;
71777;SDS011;59609;52.430;4.668;2023-02-28T00:24:44;5.40;;;2.22;;
71777;SDS011;59609;52.430;4.668;2023-02-28T00:27:09;5.95;;;1.70;;
71777;SDS011;59609;52.430;4.668;2023-02-28T00:29:35;5.35;;;2.15;;
71777;SDS011;59609;52.430;4.668;2023-02-28T00:32:00;5.22;;;1.80;;
71777;SDS011;59609;52.430;4.668;2023-02-28T00:34:26;10.10;;;2.33;;
71777;SDS011;59609;52.430;4.668;2023-02-28T00:36:51;5.55;;;1.98;;
71777;SDS011;59609;52.430;4.668;2023-02-28T00:39:16;5.45;;;2.17;;
71777;SDS011;59609;52.430;4.668;2023-02-28T00:41:42;4.55;;;1.88;;
71777;SDS011;59609;52.430;4.668;2023-02-28T00:44:07;5.72;;;2.25;;
71777;SDS011;59609;52.430;4.668;2023-02-28T00:46:32;6.05;;;2.00;;
71777;SDS011;59609;52.430;4.668;2023-02-28T00:48:58;5.60;;;2.38;;
71777;SDS011;59609;52.430;4.668;2023-02-28T00:51:26;5.80;;;2.10;;
71777;SDS011;59609;52.430;4.668;2023-02-28T00:53:51;5.20;;;1.92;;
71777;SDS011;59609;52.430;4.668;2023-02-28T00:56:16;4.40;;;1.95;;
71777;SDS011;59609;52.430;4.668;2023-02-28T00:58:42;6.32;;;2.03;;
71777;SDS011;59609;52.430;4.668;2023-02-28T01:01:07;5.30;;;2.00;;
71777;SDS011;59609;52.430;4.668;2023-02-28T01:03:33;5.07;;;1.85;;
71777;SDS011;59609;52.430;4.668;2023-02-28T01:05:58;7.35;;;3.00;;
71777;SDS011;59609;52.430;4.668;2023-02-28T01:08:23;5.38;;;1.83;;
71777;SDS011;59609;52.430;4.668;2023-02-28T01:10:49;4.70;;;2.08;;
71777;SDS011;59609;52.430;4.668;2023-02-28T01:13:14;5.82;;;1.80;;
71777;SDS011;59609;52.430;4.668;2023-02-28T01:15:41;7.18;;;2.08;;
71777;SDS011;59609;52.430;4.668;2023-02-28T01:18:11;11.32;;;2.53;;
71777;SDS011;59609;52.430;4.668;2023-02-28T01:20:37;3.97;;;2.03;;
71777;SDS011;59609;52.430;4.668;2023-02-28T01:23:02;3.55;;;1.88;;
71777;SDS011;59609;52.430;4.668;2023-02-28T01:25:28;7.30;;;2.60;;
71777;SDS011;59609;52.430;4.668;2023-02-28T01:27:53;6.75;;;2.25;;
71777;SDS011;59609;52.430;4.668;2023-02-28T01:30:19;6.18;;;2.08;;
71777;SDS011;59609;52.430;4.668;2023-02-28T01:32:44;4.43;;;2.08;;
71777;SDS011;59609;52.430;4.668;2023-02-28T01:35:09;7.63;;;2.20;;
71777;SDS011;59609;52.430;4.668;2023-02-28T01:37:35;8.20;;;2.60;;
71777;SDS011;59609;52.430;4.668;2023-02-28T01:40:00;3.85;;;2.03;;
71777;SDS011;59609;52.430;4.668;2023-02-28T01:42:26;8.35;;;2.50;;
71777;SDS011;59609;52.430;4.668;2023-02-28T01:45:08;11.43;;;4.30;;
71777;SDS011;59609;52.430;4.668;2023-02-28T01:47:44;7.70;;;3.05;;
71777;SDS011;59609;52.430;4.668;2023-02-28T01:50:14;9.25;;;3.00;;
71777;SDS011;59609;52.430;4.668;2023-02-28T01:52:48;6.18;;;2.30;;
71777;SDS011;59609;52.430;4.668;2023-02-28T01:55:14;4.50;;;2.50;;
71777;SDS011;59609;52.430;4.668;2023-02-28T01:57:46;8.35;;;2.50;;
71777;SDS011;59609;52.430;4.668;2023-02-28T02:00:17;6.32;;;2.38;;
71777;SDS011;59609;52.430;4.668;2023-02-28T02:02:47;6.43;;;2.33;;
71777;SDS011;59609;52.430;4.668;2023-02-28T02:05:19;4.35;;;2.08;;
71777;SDS011;59609;52.430;4.668;2023-02-28T02:07:50;6.90;;;2.35;;
71777;SDS011;59609;52.430;4.668;2023-02-28T02:10:20;4.18;;;2.20;;
71777;SDS011;59609;52.430;4.668;2023-02-28T02:18:30;8.90;;;2.88;;
71777;SDS011;59609;52.430;4.668;2023-02-28T02:35:30;8.68;;;2.08;;
71777;SDS011;59609;52.430;4.668;2023-02-28T02:38:07;4.75;;;1.90;;
71777;SDS011;59609;52.430;4.668;2023-02-28T02:40:38;8.80;;;2.63;;
71777;SDS011;59609;52.430;4.668;2023-02-28T02:43:13;4.47;;;2.03;;
71777;SDS011;59609;52.430;4.668;2023-02-28T02:45:49;5.55;;;2.70;;
71777;SDS011;59609;52.430;4.668;2023-02-28T02:48:18;4.60;;;2.30;;
71777;SDS011;59609;52.430;4.668;2023-02-28T02:50:48;6.32;;;2.15;;
71777;SDS011;59609;52.430;4.668;2023-02-28T02:53:17;6.50;;;2.63;;
71777;SDS011;59609;52.430;4.668;2023-02-28T02:55:46;3.03;;;2.10;;
71777;SDS011;59609;52.430;4.668;2023-02-28T02:58:18;5.13;;;2.15;;
71777;SDS011;59609;52.430;4.668;2023-02-28T03:00:50;7.03;;;2.05;;
71777;SDS011;59609;52.430;4.668;2023-02-28T03:03:19;6.65;;;2.33;;
71777;SDS011;59609;52.430;4.668;2023-02-28T03:05:54;6.03;;;2.30;;
71777;SDS011;59609;52.430;4.668;2023-02-28T03:08:21;7.75;;;2.88;;
71777;SDS011;59609;52.430;4.668;2023-02-28T03:10:50;11.25;;;2.60;;
71777;SDS011;59609;52.430;4.668;2023-02-28T03:24:23;4.90;;;2.45;;
71777;SDS011;59609;52.430;4.668;2023-02-28T03:26:58;5.80;;;2.70;;
71777;SDS011;59609;52.430;4.668;2023-02-28T03:32:11;10.13;;;2.67;;
71777;SDS011;59609;52.430;4.668;2023-02-28T03:34:48;5.53;;;2.35;;
71777;SDS011;59609;52.430;4.668;2023-02-28T03:37:22;5.82;;;2.90;;
71777;SDS011;59609;52.430;4.668;2023-02-28T03:39:59;4.85;;;2.60;;
71777;SDS011;59609;52.430;4.668;2023-02-28T03:42:31;7.40;;;2.85;;
71777;SDS011;59609;52.430;4.668;2023-02-28T03:45:02;6.80;;;3.13;;
71777;SDS011;59609;52.430;4.668;2023-02-28T03:47:35;7.38;;;2.70;;
71777;SDS011;59609;52.430;4.668;2023-02-28T03:50:13;8.32;;;3.13;;
71777;SDS011;59609;52.430;4.668;2023-02-28T03:52:47;4.43;;;2.75;;
71777;SDS011;59609;52.430;4.668;2023-02-28T03:55:26;4.20;;;2.63;;
71777;SDS011;59609;52.430;4.668;2023-02-28T03:58:01;5.80;;;2.83;;
71777;SDS011;59609;52.430;4.668;2023-02-28T04:00:40;9.20;;;3.85;;
71777;SDS011;59609;52.430;4.668;2023-02-28T04:03:11;7.65;;;3.15;;
71777;SDS011;59609;52.430;4.668;2023-02-28T04:06:12;6.57;;;3.05;;
71777;SDS011;59609;52.430;4.668;2023-02-28T04:08:30;7.68;;;3.70;;
71777;SDS011;59609;52.430;4.668;2023-02-28T04:10:58;9.00;;;3.20;;
71777;SDS011;59609;52.430;4.668;2023-02-28T04:13:31;10.70;;;3.42;;
71777;SDS011;59609;52.430;4.668;2023-02-28T04:15:56;8.13;;;3.10;;
71777;SDS011;59609;52.430;4.668;2023-02-28T04:18:21;5.78;;;3.67;;
71777;SDS011;59609;52.430;4.668;2023-02-28T04:20:47;10.15;;;3.40;;
71777;SDS011;59609;52.430;4.668;2023-02-28T04:23:12;9.50;;;3.58;;
71777;SDS011;59609;52.430;4.668;2023-02-28T04:25:37;8.13;;;3.20;;
71777;SDS011;59609;52.430;4.668;2023-02-28T04:28:05;7.95;;;3.88;;
71777;SDS011;59609;52.430;4.668;2023-02-28T04:30:31;6.85;;;3.15;;
71777;SDS011;59609;52.430;4.668;2023-02-28T04:32:57;6.85;;;3.30;;
71777;SDS011;59609;52.430;4.668;2023-02-28T04:35:23;5.55;;;3.08;;
71777;SDS011;59609;52.430;4.668;2023-02-28T04:37:48;11.20;;;3.70;;
71777;SDS011;59609;52.430;4.668;2023-02-28T04:40:14;5.55;;;3.28;;
71777;SDS011;59609;52.430;4.668;2023-02-28T04:42:39;4.78;;;3.38;;
71777;SDS011;59609;52.430;4.668;2023-02-28T04:45:05;7.10;;;3.30;;
71777;SDS011;59609;52.430;4.668;2023-02-28T04:47:30;8.68;;;3.55;;
71777;SDS011;59609;52.430;4.668;2023-02-28T04:49:56;7.97;;;3.13;;
71777;SDS011;59609;52.430;4.668;2023-02-28T04:52:21;6.25;;;3.13;;
71777;SDS011;59609;52.430;4.668;2023-02-28T04:54:47;6.28;;;3.47;;
71777;SDS011;59609;52.430;4.668;2023-02-28T04:57:12;6.30;;;3.13;;
71777;SDS011;59609;52.430;4.668;2023-02-28T04:59:37;8.63;;;2.85;;
71777;SDS011;59609;52.430;4.668;2023-02-28T05:02:03;6.50;;;2.80;;
71777;SDS011;59609;52.430;4.668;2023-02-28T05:04:32;7.18;;;3.22;;
71777;SDS011;59609;52.430;4.668;2023-02-28T05:06:59;6.82;;;2.83;;
71777;SDS011;59609;52.430;4.668;2023-02-28T05:09:25;6.07;;;3.10;;
71777;SDS011;59609;52.430;4.668;2023-02-28T05:11:51;7.05;;;3.63;;
71777;SDS011;59609;52.430;4.668;2023-02-28T05:14:16;8.88;;;3.63;;
71777;SDS011;59609;52.430;4.668;2023-02-28T05:16:42;8.95;;;3.25;;
71777;SDS011;59609;52.430;4.668;2023-02-28T05:19:07;7.95;;;3.20;;
71777;SDS011;59609;52.430;4.668;2023-02-28T05:21:36;10.93;;;3.47;;
71777;SDS011;59609;52.430;4.668;2023-02-28T05:24:07;6.32;;;3.40;;
71777;SDS011;59609;52.430;4.668;2023-02-28T05:26:36;8.90;;;3.35;;
71777;SDS011;59609;52.430;4.668;2023-02-28T05:29:03;4.32;;;3.00;;
71777;SDS011;59609;52.430;4.668;2023-02-28T05:31:28;8.43;;;3.28;;
71777;SDS011;59609;52.430;4.668;2023-02-28T05:33:54;11.73;;;4.90;;
71777;SDS011;59609;52.430;4.668;2023-02-28T05:36:19;7.70;;;2.85;;
71777;SDS011;59609;52.430;4.668;2023-02-28T05:38:46;11.27;;;3.42;;
71777;SDS011;59609;52.430;4.668;2023-02-28T05:41:13;6.90;;;3.38;;
71777;SDS011;59609;52.430;4.668;2023-02-28T05:43:39;11.65;;;3.40;;
71777;SDS011;59609;52.430;4.668;2023-02-28T05:46:05;8.20;;;3.50;;
71777;SDS011;59609;52.430;4.668;2023-02-28T05:48:31;8.65;;;3.67;;
71777;SDS011;59609;52.430;4.668;2023-02-28T05:50:58;6.43;;;3.60;;
71777;SDS011;59609;52.430;4.668;2023-02-28T05:53:23;8.18;;;3.40;;
71777;SDS011;59609;52.430;4.668;2023-02-28T05:55:48;8.02;;;4.40;;
71777;SDS011;59609;52.430;4.668;2023-02-28T05:58:14;6.47;;;3.38;;
71777;SDS011;59609;52.430;4.668;2023-02-28T06:00:39;9.02;;;3.90;;
71777;SDS011;59609;52.430;4.668;2023-02-28T06:03:04;7.20;;;4.25;;
71777;SDS011;59609;52.430;4.668;2023-02-28T06:05:30;12.98;;;4.07;;
71777;SDS011;59609;52.430;4.668;2023-02-28T06:07:55;6.32;;;4.07;;
71777;SDS011;59609;52.430;4.668;2023-02-28T06:10:20;8.48;;;4.20;;
71777;SDS011;59609;52.430;4.668;2023-02-28T06:12:46;10.20;;;5.05;;
71777;SDS011;59609;52.430;4.668;2023-02-28T06:15:12;10.27;;;4.72;;
71777;SDS011;59609;52.430;4.668;2023-02-28T06:17:40;13.93;;;4.90;;
71777;SDS011;59609;52.430;4.668;2023-02-28T06:20:06;18.52;;;5.70;;
71777;SDS011;59609;52.430;4.668;2023-02-28T06:22:32;15.77;;;5.43;;
71777;SDS011;59609;52.430;4.668;2023-02-28T06:24:57;10.40;;;5.22;;
71777;SDS011;59609;52.430;4.668;2023-02-28T06:27:23;12.00;;;5.57;;
71777;SDS011;59609;52.430;4.668;2023-02-28T06:29:48;13.38;;;5.70;;
71777;SDS011;59609;52.430;4.668;2023-02-28T06:32:14;8.77;;;5.43;;
71777;SDS011;59609;52.430;4.668;2023-02-28T06:34:39;10.35;;;5.47;;
71777;SDS011;59609;52.430;4.668;2023-02-28T06:37:05;12.77;;;5.25;;
71777;SDS011;59609;52.430;4.668;2023-02-28T06:39:33;9.27;;;4.80;;
71777;SDS011;59609;52.430;4.668;2023-02-28T06:41:58;9.13;;;4.00;;
71777;SDS011;59609;52.430;4.668;2023-02-28T06:44:26;8.98;;;3.58;;
71777;SDS011;59609;52.430;4.668;2023-02-28T06:46:51;8.82;;;3.55;;
71777;SDS011;59609;52.430;4.668;2023-02-28T06:49:17;11.48;;;4.43;;
71777;SDS011;59609;52.430;4.668;2023-02-28T06:51:43;6.40;;;3.60;;
71777;SDS011;59609;52.430;4.668;2023-02-28T06:54:12;7.80;;;4.20;;
71777;SDS011;59609;52.430;4.668;2023-02-28T06:56:37;8.07;;;4.28;;
71777;SDS011;59609;52.430;4.668;2023-02-28T06:59:03;15.10;;;4.97;;
71777;SDS011;59609;52.430;4.668;2023-02-28T07:01:29;9.70;;;4.60;;
71777;SDS011;59609;52.430;4.668;2023-02-28T07:03:56;10.25;;;4.90;;
71777;SDS011;59609;52.430;4.668;2023-02-28T07:06:22;10.90;;;5.40;;
71777;SDS011;59609;52.430;4.668;2023-02-28T07:08:48;11.75;;;5.68;;
71777;SDS011;59609;52.430;4.668;2023-02-28T07:11:14;12.15;;;6.60;;
71777;SDS011;59609;52.430;4.668;2023-02-28T07:13:40;16.00;;;7.97;;
71777;SDS011;59609;52.430;4.668;2023-02-28T07:16:06;12.75;;;6.57;;
71777;SDS011;59609;52.430;4.668;2023-02-28T07:18:34;12.63;;;7.28;;
71777;SDS011;59609;52.430;4.668;2023-02-28T07:21:07;13.68;;;6.03;;
71777;SDS011;59609;52.430;4.668;2023-02-28T07:23:34;13.95;;;7.40;;
71777;SDS011;59609;52.430;4.668;2023-02-28T07:26:00;15.25;;;7.30;;
71777;SDS011;59609;52.430;4.668;2023-02-28T07:28:26;13.43;;;6.93;;
71777;SDS011;59609;52.430;4.668;2023-02-28T07:30:52;16.95;;;7.70;;
71777;SDS011;59609;52.430;4.668;2023-02-28T07:33:17;15.73;;;7.30;;
71777;SDS011;59609;52.430;4.668;2023-02-28T07:35:43;14.18;;;7.85;;
71777;SDS011;59609;52.430;4.668;2023-02-28T07:38:08;16.27;;;8.25;;
71777;SDS011;59609;52.430;4.668;2023-02-28T07:40:34;12.40;;;6.47;;
71777;SDS011;59609;52.430;4.668;2023-02-28T07:43:01;14.93;;;7.40;;
71777;SDS011;59609;52.430;4.668;2023-02-28T07:45:27;14.52;;;7.03;;
71777;SDS011;59609;52.430;4.668;2023-02-28T07:47:54;17.77;;;7.93;;
71777;SDS011;59609;52.430;4.668;2023-02-28T07:50:20;15.38;;;7.75;;
71777;SDS011;59609;52.430;4.668;2023-02-28T07:52:45;12.15;;;7.28;;
71777;SDS011;59609;52.430;4.668;2023-02-28T07:55:11;14.70;;;7.60;;
71777;SDS011;59609;52.430;4.668;2023-02-28T07:57:37;15.80;;;7.75;;
71777;SDS011;59609;52.430;4.668;2023-02-28T08:00:06;10.63;;;6.05;;
71777;SDS011;59609;52.430;4.668;2023-02-28T08:02:38;11.90;;;7.30;;
71777;SDS011;59609;52.430;4.668;2023-02-28T08:05:04;15.52;;;7.60;;
71777;SDS011;59609;52.430;4.668;2023-02-28T08:07:30;14.30;;;7.97;;
71777;SDS011;59609;52.430;4.668;2023-02-28T08:09:56;11.25;;;6.65;;
71777;SDS011;59609;52.430;4.668;2023-02-28T08:12:21;17.38;;;7.65;;
71777;SDS011;59609;52.430;4.668;2023-02-28T08:14:46;12.85;;;6.47;;
71777;SDS011;59609;52.430;4.668;2023-02-28T08:17:12;13.43;;;6.57;;
71777;SDS011;59609;52.430;4.668;2023-02-28T08:19:37;13.82;;;8.13;;
71777;SDS011;59609;52.430;4.668;2023-02-28T08:22:03;12.77;;;6.57;;
71777;SDS011;59609;52.430;4.668;2023-02-28T08:24:28;16.52;;;7.88;;
71777;SDS011;59609;52.430;4.668;2023-02-28T08:26:54;15.68;;;8.43;;
71777;SDS011;59609;52.430;4.668;2023-02-28T08:29:20;16.98;;;8.75;;
71777;SDS011;59609;52.430;4.668;2023-02-28T08:31:45;15.13;;;8.77;;
71777;SDS011;59609;52.430;4.668;2023-02-28T08:34:14;17.02;;;9.80;;
71777;SDS011;59609;52.430;4.668;2023-02-28T08:36:41;13.43;;;8.60;;
71777;SDS011;59609;52.430;4.668;2023-02-28T08:39:08;18.38;;;9.15;;
71777;SDS011;59609;52.430;4.668;2023-02-28T08:41:34;16.42;;;9.77;;
71777;SDS011;59609;52.430;4.668;2023-02-28T08:43:59;17.08;;;9.60;;
71777;SDS011;59609;52.430;4.668;2023-02-28T08:46:25;17.65;;;9.30;;
71777;SDS011;59609;52.430;4.668;2023-02-28T08:48:54;19.52;;;9.98;;
71777;SDS011;59609;52.430;4.668;2023-02-28T08:51:21;18.90;;;8.77;;
71777;SDS011;59609;52.430;4.668;2023-02-28T08:53:51;22.13;;;9.90;;
71777;SDS011;59609;52.430;4.668;2023-02-28T08:56:20;18.02;;;9.45;;
71777;SDS011;59609;52.430;4.668;2023-02-28T08:58:46;17.42;;;9.77;;
71777;SDS011;59609;52.430;4.668;2023-02-28T09:01:14;18.33;;;9.73;;
71777;SDS011;59609;52.430;4.668;2023-02-28T09:03:41;20.45;;;10.88;;
71777;SDS011;59609;52.430;4.668;2023-02-28T09:06:07;19.23;;;9.82;;
71777;SDS011;59609;52.430;4.668;2023-02-28T09:08:34;18.95;;;10.73;;
71777;SDS011;59609;52.430;4.668;2023-02-28T09:11:02;17.10;;;9.93;;
71777;SDS011;59609;52.430;4.668;2023-02-28T09:13:29;17.50;;;8.57;;
71777;SDS011;59609;52.430;4.668;2023-02-28T09:15:56;18.83;;;10.15;;
71777;SDS011;59609;52.430;4.668;2023-02-28T09:18:22;18.17;;;10.25;;
71777;SDS011;59609;52.430;4.668;2023-02-28T09:20:48;23.25;;;10.98;;
71777;SDS011;59609;52.430;4.668;2023-02-28T09:23:13;16.95;;;9.38;;
71777;SDS011;59609;52.430;4.668;2023-02-28T09:25:44;16.10;;;9.23;;
71777;SDS011;59609;52.430;4.668;2023-02-28T09:28:15;13.75;;;7.93;;
71777;SDS011;59609;52.430;4.668;2023-02-28T09:30:44;15.88;;;8.30;;
71777;SDS011;59609;52.430;4.668;2023-02-28T09:33:10;15.10;;;8.95;;
71777;SDS011;59609;52.430;4.668;2023-02-28T09:35:36;15.10;;;8.15;;
71777;SDS011;59609;52.430;4.668;2023-02-28T09:38:02;18.17;;;8.02;;
71777;SDS011;59609;52.430;4.668;2023-02-28T09:40:28;15.85;;;9.05;;
71777;SDS011;59609;52.430;4.668;2023-02-28T09:42:54;18.42;;;9.68;;
71777;SDS011;59609;52.430;4.668;2023-02-28T09:47:59;16.80;;;8.95;;
71777;SDS011;59609;52.430;4.668;2023-02-28T09:53:06;13.75;;;8.20;;
71777;SDS011;59609;52.430;4.668;2023-02-28T09:55:48;14.80;;;8.98;;
71777;SDS011;59609;52.430;4.668;2023-02-28T09:58:22;14.15;;;7.40;;
71777;SDS011;59609;52.430;4.668;2023-02-28T10:00:51;10.25;;;6.78;;
71777;SDS011;59609;52.430;4.668;2023-02-28T10:03:39;11.25;;;6.88;;
71777;SDS011;59609;52.430;4.668;2023-02-28T10:08:50;7.88;;;5.53;;
71777;SDS011;59609;52.430;4.668;2023-02-28T10:11:22;7.65;;;5.57;;
71777;SDS011;59609;52.430;4.668;2023-02-28T10:16:44;9.00;;;4.90;;
71777;SDS011;59609;52.430;4.668;2023-02-28T10:19:27;5.93;;;4.18;;
71777;SDS011;59609;52.430;4.668;2023-02-28T10:22:00;5.93;;;4.30;;
71777;SDS011;59609;52.430;4.668;2023-02-28T10:24:39;7.15;;;4.35;;
71777;SDS011;59609;52.430;4.668;2023-02-28T10:27:14;6.05;;;4.25;;
71777;SDS011;59609;52.430;4.668;2023-02-28T10:29:48;6.57;;;4.05;;
71777;SDS011;59609;52.430;4.668;2023-02-28T10:32:16;6.20;;;4.38;;
71777;SDS011;59609;52.430;4.668;2023-02-28T10:34:44;5.10;;;3.65;;
71777;SDS011;59609;52.430;4.668;2023-02-28T10:37:15;5.45;;;3.30;;
71777;SDS011;59609;52.430;4.668;2023-02-28T10:39:42;5.57;;;3.45;;
71777;SDS011;59609;52.430;4.668;2023-02-28T10:45:12;5.45;;;3.08;;
71777;SDS011;59609;52.430;4.668;2023-02-28T10:47:53;5.97;;;3.95;;
71777;SDS011;59609;52.430;4.668;2023-02-28T10:52:53;5.82;;;3.17;;
71777;SDS011;59609;52.430;4.668;2023-02-28T10:55:23;4.70;;;3.13;;
71777;SDS011;59609;52.430;4.668;2023-02-28T10:57:50;6.63;;;3.72;;
71777;SDS011;59609;52.430;4.668;2023-02-28T11:00:18;6.25;;;3.35;;
71777;SDS011;59609;52.430;4.668;2023-02-28T11:02:47;4.03;;;3.15;;
71777;SDS011;59609;52.430;4.668;2023-02-28T11:07:55;3.35;;;2.13;;
71777;SDS011;59609;52.430;4.668;2023-02-28T11:10:36;5.15;;;2.40;;
71777;SDS011;59609;52.430;4.668;2023-02-28T11:13:02;4.53;;;2.80;;
71777;SDS011;59609;52.430;4.668;2023-02-28T11:15:32;5.25;;;2.47;;
71777;SDS011;59609;52.430;4.668;2023-02-28T11:18:05;2.45;;;2.20;;
71777;SDS011;59609;52.430;4.668;2023-02-28T11:20:54;3.03;;;1.80;;
71777;SDS011;59609;52.430;4.668;2023-02-28T11:23:24;3.00;;;2.10;;
71777;SDS011;59609;52.430;4.668;2023-02-28T11:25:52;3.30;;;2.40;;
71777;SDS011;59609;52.430;4.668;2023-02-28T11:31:02;1.58;;;1.48;;
71777;SDS011;59609;52.430;4.668;2023-02-28T11:36:21;4.07;;;2.00;;
71777;SDS011;59609;52.430;4.668;2023-02-28T11:38:52;1.90;;;1.60;;
71777;SDS011;59609;52.430;4.668;2023-02-28T11:41:21;2.15;;;2.00;;
71777;SDS011;59609;52.430;4.668;2023-02-28T11:44:09;2.60;;;1.70;;
71777;SDS011;59609;52.430;4.668;2023-02-28T11:49:23;2.17;;;1.65;;
71777;SDS011;59609;52.430;4.668;2023-02-28T11:55:46;2.17;;;1.73;;
71777;SDS011;59609;52.430;4.668;2023-02-28T12:11:29;2.58;;;1.92;;
71777;SDS011;59609;52.430;4.668;2023-02-28T12:27:28;3.47;;;2.30;;
71777;SDS011;59609;52.430;4.668;2023-02-28T12:30:02;3.05;;;2.08;;
71777;SDS011;59609;52.430;4.668;2023-02-28T12:32:33;2.55;;;2.05;;
71777;SDS011;59609;52.430;4.668;2023-02-28T12:37:43;3.85;;;2.15;;
71777;SDS011;59609;52.430;4.668;2023-02-28T12:40:20;3.85;;;2.40;;
71777;SDS011;59609;52.430;4.668;2023-02-28T12:42:51;3.42;;;2.83;;
71777;SDS011;59609;52.430;4.668;2023-02-28T12:45:23;2.20;;;2.00;;
71777;SDS011;59609;52.430;4.668;2023-02-28T12:47:55;5.07;;;2.60;;
71777;SDS011;59609;52.430;4.668;2023-02-28T12:50:25;4.10;;;2.22;;
71777;SDS011;59609;52.430;4.668;2023-02-28T13:01:21;4.03;;;2.65;;
71777;SDS011;59609;52.430;4.668;2023-02-28T13:04:06;2.53;;;2.33;;
71777;SDS011;59609;52.430;4.668;2023-02-28T13:11:57;3.40;;;2.10;;
71777;SDS011;59609;52.430;4.668;2023-02-28T13:19:34;2.15;;;1.90;;
71777;SDS011;59609;52.430;4.668;2023-02-28T13:22:09;2.03;;;1.83;;
71777;SDS011;59609;52.430;4.668;2023-02-28T13:24:49;2.65;;;2.10;;
71777;SDS011;59609;52.430;4.668;2023-02-28T13:29:58;3.58;;;1.90;;
71777;SDS011;59609;52.430;4.668;2023-02-28T13:39:53;3.95;;;2.30;;
71777;SDS011;59609;52.430;4.668;2023-02-28T13:47:30;1.95;;;1.83;;
71777;SDS011;59609;52.430;4.668;2023-02-28T13:50:59;2.67;;;1.85;;
71777;SDS011;59609;52.430;4.668;2023-02-28T13:58:28;5.35;;;2.17;;
71777;SDS011;59609;52.430;4.668;2023-02-28T14:07:22;4.13;;;2.17;;
71777;SDS011;59609;52.430;4.668;2023-02-28T14:09:58;3.13;;;2.08;;
71777;SDS011;59609;52.430;4.668;2023-02-28T14:18:03;2.17;;;1.70;;
71777;SDS011;59609;52.430;4.668;2023-02-28T14:20:38;2.10;;;1.85;;
71777;SDS011;59609;52.430;4.668;2023-02-28T14:23:15;4.10;;;1.90;;
71777;SDS011;59609;52.430;4.668;2023-02-28T14:25:54;4.43;;;2.30;;
71777;SDS011;59609;52.430;4.668;2023-02-28T14:28:47;1.98;;;1.80;;
71777;SDS011;59609;52.430;4.668;2023-02-28T14:34:21;2.13;;;1.92;;
71777;SDS011;59609;52.430;4.668;2023-02-28T14:37:13;2.30;;;2.10;;
71777;SDS011;59609;52.430;4.668;2023-02-28T14:39:43;10.30;;;2.47;;
71777;SDS011;59609;52.430;4.668;2023-02-28T14:44:55;3.72;;;2.10;;
71777;SDS011;59609;52.430;4.668;2023-02-28T14:47:23;2.17;;;1.90;;
71777;SDS011;59609;52.430;4.668;2023-02-28T14:49:53;2.72;;;1.90;;
71777;SDS011;59609;52.430;4.668;2023-02-28T14:52:20;3.67;;;2.10;;
71777;SDS011;59609;52.430;4.668;2023-02-28T14:54:46;7.00;;;1.80;;
71777;SDS011;59609;52.430;4.668;2023-02-28T14:57:25;2.45;;;2.08;;
71777;SDS011;59609;52.430;4.668;2023-02-28T15:00:03;3.00;;;2.08;;
71777;SDS011;59609;52.430;4.668;2023-02-28T15:02:37;2.70;;;2.03;;
71777;SDS011;59609;52.430;4.668;2023-02-28T15:07:41;2.53;;;2.20;;
71777;SDS011;59609;52.430;4.668;2023-02-28T15:10:09;4.03;;;2.03;;
71777;SDS011;59609;52.430;4.668;2023-02-28T15:12:55;3.60;;;2.58;;
71777;SDS011;59609;52.430;4.668;2023-02-28T15:15:26;2.28;;;2.00;;
71777;SDS011;59609;52.430;4.668;2023-02-28T15:18:12;3.25;;;2.53;;
71777;SDS011;59609;52.430;4.668;2023-02-28T15:21:05;4.15;;;2.40;;
71777;SDS011;59609;52.430;4.668;2023-02-28T15:23:36;2.47;;;1.90;;
71777;SDS011;59609;52.430;4.668;2023-02-28T15:26:02;3.05;;;1.70;;
71777;SDS011;59609;52.430;4.668;2023-02-28T15:28:29;5.78;;;2.13;;
71777;SDS011;59609;52.430;4.668;2023-02-28T15:30:59;4.18;;;1.88;;
71777;SDS011;59609;52.430;4.668;2023-02-28T15:33:27;2.63;;;1.90;;
71777;SDS011;59609;52.430;4.668;2023-02-28T15:36:05;3.80;;;1.83;;
71777;SDS011;59609;52.430;4.668;2023-02-28T15:38:36;3.20;;;1.85;;
71777;SDS011;59609;52.430;4.668;2023-02-28T15:41:01;3.05;;;1.67;;
71777;SDS011;59609;52.430;4.668;2023-02-28T15:43:34;2.58;;;1.90;;
71777;SDS011;59609;52.430;4.668;2023-02-28T15:49:12;2.65;;;1.33;;
71777;SDS011;59609;52.430;4.668;2023-02-28T15:51:32;2.85;;;1.70;;
71777;SDS011;59609;52.430;4.668;2023-02-28T15:54:00;2.00;;;1.60;;
71777;SDS011;59609;52.430;4.668;2023-02-28T15:56:48;2.10;;;1.90;;
71777;SDS011;59609;52.430;4.668;2023-02-28T15:59:17;2.83;;;1.65;;
71777;SDS011;59609;52.430;4.668;2023-02-28T16:02:12;2.30;;;2.10;;
71777;SDS011;59609;52.430;4.668;2023-02-28T16:07:20;3.22;;;1.83;;
71777;SDS011;59609;52.430;4.668;2023-02-28T16:09:45;2.67;;;1.65;;
71777;SDS011;59609;52.430;4.668;2023-02-28T16:12:12;2.25;;;1.75;;
71777;SDS011;59609;52.430;4.668;2023-02-28T16:14:38;2.70;;;1.70;;
71777;SDS011;59609;52.430;4.668;2023-02-28T16:17:06;2.78;;;1.60;;
71777;SDS011;59609;52.430;4.668;2023-02-28T16:19:38;1.52;;;1.42;;
71777;SDS011;59609;52.430;4.668;2023-02-28T16:22:04;4.68;;;1.83;;
71777;SDS011;59609;52.430;4.668;2023-02-28T16:24:29;4.47;;;1.65;;
71777;SDS011;59609;52.430;4.668;2023-02-28T16:26:55;2.47;;;1.63;;
71777;SDS011;59609;52.430;4.668;2023-02-28T16:29:26;5.63;;;1.80;;
71777;SDS011;59609;52.430;4.668;2023-02-28T16:31:54;1.88;;;1.55;;
71777;SDS011;59609;52.430;4.668;2023-02-28T16:34:20;2.47;;;1.80;;
71777;SDS011;59609;52.430;4.668;2023-02-28T16:36:47;6.60;;;1.92;;
71777;SDS011;59609;52.430;4.668;2023-02-28T16:39:13;2.85;;;1.80;;
71777;SDS011;59609;52.430;4.668;2023-02-28T16:41:38;2.55;;;1.58;;
71777;SDS011;59609;52.430;4.668;2023-02-28T16:44:09;1.75;;;1.63;;
71777;SDS011;59609;52.430;4.668;2023-02-28T16:46:44;1.77;;;1.63;;
71777;SDS011;59609;52.430;4.668;2023-02-28T16:49:10;2.35;;;1.65;;
71777;SDS011;59609;52.430;4.668;2023-02-28T16:51:36;3.58;;;1.90;;
71777;SDS011;59609;52.430;4.668;2023-02-28T16:54:02;2.13;;;1.63;;
71777;SDS011;59609;52.430;4.668;2023-02-28T16:56:27;1.77;;;1.67;;
71777;SDS011;59609;52.430;4.668;2023-02-28T16:58:52;2.22;;;1.45;;
71777;SDS011;59609;52.430;4.668;2023-02-28T17:01:21;2.40;;;1.48;;
71777;SDS011;59609;52.430;4.668;2023-02-28T17:03:47;2.67;;;1.88;;
71777;SDS011;59609;52.430;4.668;2023-02-28T17:06:17;3.25;;;1.83;;
71777;SDS011;59609;52.430;4.668;2023-02-28T17:08:43;3.17;;;1.85;;
71777;SDS011;59609;52.430;4.668;2023-02-28T17:11:09;2.30;;;1.90;;
71777;SDS011;59609;52.430;4.668;2023-02-28T17:13:34;3.60;;;1.90;;
71777;SDS011;59609;52.430;4.668;2023-02-28T17:16:00;5.22;;;2.00;;
71777;SDS011;59609;52.430;4.668;2023-02-28T17:18:25;4.78;;;2.10;;
71777;SDS011;59609;52.430;4.668;2023-02-28T17:20:58;2.40;;;1.90;;
71777;SDS011;59609;52.430;4.668;2023-02-28T17:23:24;2.75;;;1.92;;
71777;SDS011;59609;52.430;4.668;2023-02-28T17:25:49;6.15;;;2.10;;
71777;SDS011;59609;52.430;4.668;2023-02-28T17:28:21;3.30;;;2.05;;
71777;SDS011;59609;52.430;4.668;2023-02-28T17:30:47;3.92;;;2.47;;
71777;SDS011;59609;52.430;4.668;2023-02-28T17:33:13;2.63;;;2.03;;